Time;durP1;ratioP1;P1;durP2;ratioP2;P2;SDS_P1;SDS_P2;PMS_P1;PMS_P2;Temp;Humidity;BMP_temperature;BMP_pressure;BME280_temperature;BME280_humidity;BME280_pressure;Samples;Min_cycle;Max_cycle;Signal;HPM_P1;HPM_P2
2022/02/19 00:00:10;;;;;;;18.67;4.90;;;;;;;6.42;69.87;99097.69;5055281;28;20056;-64
2022/02/19 00:02:54;;;;;;;14.25;5.07;;;;;;;6.43;70.04;99096.84;5039624;28;20064;-65
2022/02/19 00:05:41;;;;;;;21.75;4.95;;;;;;;6.44;69.94;99103.72;5054831;28;20175;-65
2022/02/19 00:08:25;;;;;;;15.57;4.35;;;;;;;6.42;69.39;99092.53;5055145;28;20128;-65
2022/02/19 00:11:09;;;;;;;13.13;5.05;;;;;;;6.41;69.83;99114.81;5039858;28;20108;-65
2022/02/19 00:13:53;;;;;;;18.95;5.18;;;;;;;6.42;69.66;99123.44;5054860;28;20051;-65
2022/02/19 00:16:38;;;;;;;16.00;4.35;;;;;;;6.40;70.03;99118.22;5039822;28;20083;-64
2022/02/19 00:19:21;;;;;;;17.52;4.65;;;;;;;6.37;69.46;99120.78;5039824;28;20107;-64
2022/02/19 00:22:05;;;;;;;14.23;4.20;;;;;;;6.35;69.64;99127.59;5054493;28;20052;-65
2022/02/19 00:24:49;;;;;;;11.90;4.60;;;;;;;6.36;69.69;99127.59;5039776;28;20098;-65
2022/02/19 00:27:33;;;;;;;15.32;5.35;;;;;;;6.36;69.96;99129.34;5054579;28;20044;-65
2022/02/19 00:30:17;;;;;;;20.27;5.43;;;;;;;6.37;69.87;99136.22;5054134;28;20068;-64
2022/02/19 00:33:01;;;;;;;;;;;;;;;6.34;69.77;99125.84;5039595;28;20137;-64
2022/02/19 00:35:47;;;;;;;17.95;5.15;;;;;;;6.32;69.82;99141.25;5054647;28;20008;-64
2022/02/19 00:38:31;;;;;;;15.25;5.38;;;;;;;6.32;69.74;99141.25;5054617;28;20779;-65
2022/02/19 00:41:15;;;;;;;14.90;3.95;;;;;;;6.33;69.99;99155.84;5054647;28;20527;-65
2022/02/19 00:43:59;;;;;;;15.93;5.65;;;;;;;6.28;69.69;99160.06;5039555;28;20114;-64
2022/02/19 00:46:43;;;;;;;13.27;4.35;;;;;;;6.31;69.62;99172.13;5054217;28;20614;-65
2022/02/19 00:49:27;;;;;;;;;;;;;;;6.23;69.76;99180.53;5039975;28;20222;-65
2022/02/19 00:52:11;;;;;;;10.38;4.10;;;;;;;6.25;69.77;99178.88;5039069;28;20355;-65
2022/02/19 00:54:57;;;;;;;12.57;3.33;;;;;;;6.25;69.57;99173.72;5054364;28;20052;-64
2022/02/19 00:57:41;;;;;;;13.73;4.43;;;;;;;6.24;70.24;99176.28;5039393;28;20395;-64
2022/02/19 01:00:25;;;;;;;12.70;4.43;;;;;;;6.23;69.94;99183.13;5054046;28;20087;-65
2022/02/19 01:03:10;;;;;;;11.82;4.03;;;;;;;6.27;69.98;99185.75;5053449;28;20091;-64
2022/02/19 01:05:54;;;;;;;;;;;;;;;6.22;69.68;99186.56;5039368;28;20040;-65
2022/02/19 01:08:38;;;;;;;24.08;4.95;;;;;;;6.21;70.04;99197.69;5053755;28;19927;-66
2022/02/19 01:11:24;;;;;;;16.48;4.00;;;;;;;6.21;70.05;99197.69;5038648;28;20050;-65
2022/02/19 01:14:09;;;;;;;17.25;5.03;;;;;;;6.23;69.79;99189.97;5038908;28;20098;-64
2022/02/19 01:16:53;;;;;;;12.65;4.45;;;;;;;6.20;69.69;99195.06;5053470;28;20048;-64
2022/02/19 01:19:40;;;;;;;10.57;3.88;;;;;;;6.22;70.35;99186.56;5038830;28;20107;-64
2022/02/19 01:22:23;;;;;;;12.18;4.68;;;;;;;6.19;70.00;99224.19;5053834;28;20075;-65
2022/02/19 01:25:12;;;;;;;12.00;5.75;;;;;;;6.19;69.68;99219.06;5038688;28;20128;-64
2022/02/19 01:27:56;;;;;;;21.42;5.00;;;;;;;6.21;69.91;99235.41;5038657;28;20051;-65
2022/02/19 01:30:43;;;;;;;13.20;4.85;;;;;;;6.20;69.72;99236.22;5053660;28;20040;-65
2022/02/19 01:33:27;;;;;;;13.10;3.90;;;;;;;6.22;70.10;99237.13;5038719;28;20052;-65
2022/02/19 01:36:11;;;;;;;15.48;5.38;;;;;;;6.21;70.18;99254.28;5053445;28;20051;-64
2022/02/19 01:38:55;;;;;;;14.15;4.15;;;;;;;6.18;69.81;99259.38;5053723;28;20071;-66
2022/02/19 01:41:42;;;;;;;9.00;3.55;;;;;;;6.19;70.27;99257.66;5053328;28;20036;-65
2022/02/19 01:44:37;;;;;;;21.15;5.28;;;;;;;6.17;70.18;99261.88;5038633;28;20114;-64
2022/02/19 01:47:22;;;;;;;10.85;4.20;;;;;;;6.18;70.18;99264.50;5038460;28;20052;-64
2022/02/19 01:50:10;;;;;;;20.13;5.13;;;;;;;6.18;70.35;99269.66;5053444;28;20060;-64
2022/02/19 01:52:54;;;;;;;23.42;6.22;;;;;;;6.20;69.99;99272.25;5038174;28;20048;-65
2022/02/19 01:55:39;;;;;;;13.43;4.63;;;;;;;6.18;70.29;99269.66;5038188;28;20052;-65
2022/02/19 01:58:26;;;;;;;;;;;;;;;6.17;69.97;99274.75;5038881;28;20052;-64
2022/02/19 02:01:10;;;;;;;12.48;4.35;;;;;;;6.17;69.95;99295.34;5038074;28;19966;-65
2022/02/19 02:03:54;;;;;;;16.60;3.67;;;;;;;6.16;70.08;99289.34;5053149;28;20467;-64
2022/02/19 02:06:38;;;;;;;21.92;4.95;;;;;;;6.10;69.92;99304.63;5038203;28;20073;-64
2022/02/19 02:09:22;;;;;;;;;;;;;;;6.09;69.90;99311.50;5053721;28;20159;-64
2022/02/19 02:12:07;;;;;;;12.88;4.35;;;;;;;6.09;69.86;99305.47;5053076;28;19923;-65
2022/02/19 02:14:51;;;;;;;18.88;4.78;;;;;;;6.08;69.56;99324.31;5053162;28;20507;-64
2022/02/19 02:17:39;;;;;;;11.93;5.00;;;;;;;6.09;69.77;99332.06;5053384;28;20561;-64
2022/02/19 02:20:24;;;;;;;18.48;5.60;;;;;;;6.07;69.42;99348.31;5038048;28;20064;-64
2022/02/19 02:23:14;;;;;;;15.98;4.25;;;;;;;6.03;69.85;99341.34;5038438;28;20128;-65
2022/02/19 02:26:03;;;;;;;12.55;3.63;;;;;;;6.03;69.78;99362.78;5053123;28;20124;-65
2022/02/19 02:28:48;;;;;;;14.93;4.03;;;;;;;6.01;69.21;99356.75;5038213;28;20083;-65
2022/02/19 02:31:32;;;;;;;11.55;3.97;;;;;;;5.98;69.51;99368.63;5041858;28;20572;-64
2022/02/19 02:34:19;;;;;;;16.30;4.63;;;;;;;5.97;69.61;99354.03;5057052;28;20059;-64
2022/02/19 02:37:04;;;;;;;14.98;3.85;;;;;;;5.97;69.58;99372.03;5041769;28;20102;-65
2022/02/19 02:39:48;;;;;;;8.80;3.35;;;;;;;5.97;69.11;99369.47;5041836;28;20052;-65
2022/02/19 02:42:34;;;;;;;;;;;;;;;5.92;69.23;99371.94;5056638;28;20047;-65
2022/02/19 02:45:18;;;;;;;7.72;3.35;;;;;;;5.88;68.77;99385.53;5056647;28;19919;-64
2022/02/19 02:48:03;;;;;;;9.85;4.00;;;;;;;5.88;69.13;99403.56;5041351;28;20459;-65
2022/02/19 02:50:48;;;;;;;12.60;4.07;;;;;;;5.87;69.12;99397.56;5041291;28;20099;-65
2022/02/19 02:53:32;;;;;;;10.05;3.92;;;;;;;5.86;69.01;99406.09;5056325;28;20071;-65
2022/02/19 02:56:15;;;;;;;8.20;3.35;;;;;;;5.86;69.20;99408.66;5056507;28;20179;-64
2022/02/19 02:59:02;;;;;;;11.65;3.65;;;;;;;5.88;68.47;99409.59;5056573;28;20132;-64
2022/02/19 03:01:46;;;;;;;10.80;3.70;;;;;;;5.85;68.49;99395.75;5041326;28;20067;-65
2022/02/19 03:04:32;;;;;;;11.40;3.25;;;;;;;5.85;68.85;99416.31;5056137;28;20102;-65
2022/02/19 03:07:17;;;;;;;11.23;3.55;;;;;;;5.85;69.00;99424.03;5041287;28;20094;-64
2022/02/19 03:10:05;;;;;;;15.48;3.28;;;;;;;5.83;68.38;99418.03;5041114;28;20048;-65
2022/02/19 03:12:51;;;;;;;11.52;3.22;;;;;;;5.85;69.14;99419.78;5055966;28;20067;-64
2022/02/19 03:15:35;;;;;;;6.85;3.67;;;;;;;5.86;69.04;99430.94;5055741;28;20052;-65
2022/02/19 03:18:19;;;;;;;9.70;3.95;;;;;;;5.85;68.94;99429.19;5040994;28;20051;-64
2022/02/19 03:21:05;;;;;;;7.60;3.40;;;;;;;5.86;68.51;99433.50;5055614;28;20083;-65
2022/02/19 03:23:49;;;;;;;9.57;3.55;;;;;;;5.83;68.93;99441.16;5040747;28;20056;-64
2022/02/19 03:26:34;;;;;;;;;;;;;;;5.82;68.18;99454.84;5056086;28;20106;-64
2022/02/19 03:29:17;;;;;;;9.82;3.72;;;;;;;5.81;68.64;99445.41;5055455;28;20410;-64
2022/02/19 03:32:06;;;;;;;15.38;4.40;;;;;;;5.77;68.94;99450.44;5041050;28;20048;-64
2022/02/19 03:34:50;;;;;;;13.15;3.15;;;;;;;5.77;68.81;99459.84;5040737;28;20154;-64
2022/02/19 03:37:35;;;;;;;;;;;;;;;5.77;68.26;99462.41;5055970;28;20080;-64
2022/02/19 03:40:19;;;;;;;16.85;5.20;;;;;;;5.74;68.63;99472.66;5040717;28;19954;-64
2022/02/19 03:43:04;;;;;;;11.50;3.65;;;;;;;5.76;68.58;99478.72;5040439;28;20048;-64
2022/02/19 03:45:48;;;;;;;8.07;3.13;;;;;;;5.76;68.63;99486.44;5040686;28;20059;-64
2022/02/19 03:48:32;;;;;;;7.60;3.25;;;;;;;5.73;68.57;99483.75;5055291;28;20052;-64
2022/02/19 03:51:16;;;;;;;12.07;3.97;;;;;;;5.73;68.79;99489.75;5040387;28;20088;-64
2022/02/19 03:54:02;;;;;;;8.55;3.53;;;;;;;5.76;68.76;99507.00;5040310;28;20557;-65
2022/02/19 03:56:47;;;;;;;7.75;3.20;;;;;;;5.75;68.83;99525.81;5055383;28;20067;-64
2022/02/19 03:59:30;;;;;;;12.50;3.42;;;;;;;5.72;68.62;99521.44;5040282;28;20080;-64
2022/02/19 04:02:14;;;;;;;10.20;3.88;;;;;;;5.74;68.70;99531.78;5039795;28;20052;-64
2022/02/19 04:04:59;;;;;;;;;;;;;;;5.68;68.11;99529.03;5055680;28;20052;-64
2022/02/19 04:07:44;;;;;;;11.40;3.78;;;;;;;5.69;68.49;99538.50;5054818;28;19923;-64
2022/02/19 04:10:28;;;;;;;14.30;4.10;;;;;;;5.71;69.08;99549.72;5040005;28;20525;-64
2022/02/19 04:13:12;;;;;;;7.95;2.88;;;;;;;5.72;68.88;99547.16;5040070;28;20044;-64
2022/02/19 04:15:56;;;;;;;14.15;4.80;;;;;;;5.73;68.56;99555.75;5039975;28;20124;-64
2022/02/19 04:18:40;;;;;;;11.63;4.07;;;;;;;5.72;68.81;99556.59;5039861;28;20048;-64
2022/02/19 04:21:24;;;;;;;8.40;2.80;;;;;;;5.76;69.17;99558.44;5054924;28;20052;-64
2022/02/19 04:24:07;;;;;;;13.80;3.92;;;;;;;5.77;68.90;99568.75;5054883;28;20060;-64
2022/02/19 04:26:51;;;;;;;16.83;4.95;;;;;;;5.77;68.95;99563.59;5039716;28;20122;-64
2022/02/19 04:29:35;;;;;;;8.25;3.72;;;;;;;5.78;68.93;99565.34;5039873;28;20079;-64
2022/02/19 04:32:19;;;;;;;11.02;4.10;;;;;;;5.79;69.21;99564.53;5039507;28;20124;-64
2022/02/19 04:35:04;;;;;;;11.65;4.30;;;;;;;5.82;68.58;99579.16;5054758;28;20052;-64
2022/02/19 04:37:48;;;;;;;17.58;4.88;;;;;;;5.83;69.05;99588.59;5039578;28;20475;-64
2022/02/19 04:40:33;;;;;;;10.27;3.78;;;;;;;5.83;68.98;99593.75;5054607;28;20140;-65
2022/02/19 04:43:17;;;;;;;11.02;3.50;;;;;;;5.83;68.80;99604.03;5054324;28;20048;-64
2022/02/19 04:46:01;;;;;;;13.07;3.78;;;;;;;5.79;68.93;99600.53;5054526;28;20051;-64
2022/02/19 04:48:45;;;;;;;11.27;3.55;;;;;;;5.79;69.31;99609.91;5054516;28;20079;-64
2022/02/19 04:51:29;;;;;;;11.75;3.70;;;;;;;5.78;68.94;99614.22;5054098;28;20043;-65
2022/02/19 04:54:13;;;;;;;;;;;;;;;5.76;69.27;99610.72;5054450;28;20052;-65
2022/02/19 04:56:57;;;;;;;14.45;3.92;;;;;;;5.75;68.87;99623.53;5053250;28;19920;-64
2022/02/19 04:59:43;;;;;;;14.20;5.18;;;;;;;5.74;69.05;99621.81;5054203;28;20052;-64
2022/02/19 05:02:27;;;;;;;10.48;4.13;;;;;;;5.75;69.22;99637.25;5038803;28;20565;-65
2022/02/19 05:05:12;;;;;;;15.73;3.38;;;;;;;5.74;69.37;99632.94;5053972;28;20175;-64
2022/02/19 05:07:55;;;;;;;14.65;4.20;;;;;;;5.75;69.30;99634.69;5053902;28;20052;-66
2022/02/19 05:10:39;;;;;;;13.82;5.20;;;;;;;5.72;69.26;99633.72;5053741;28;20404;-64
2022/02/19 05:13:23;;;;;;;12.27;3.83;;;;;;;5.74;68.99;99634.66;5053847;28;20064;-64
2022/02/19 05:16:09;;;;;;;15.50;4.18;;;;;;;5.71;69.10;99650.84;5053808;28;20048;-65
2022/02/19 05:18:53;;;;;;;18.90;5.53;;;;;;;5.73;68.94;99650.91;5053822;28;20075;-64
2022/02/19 05:21:37;;;;;;;17.70;4.72;;;;;;;5.72;68.80;99657.72;5038607;28;20083;-64
2022/02/19 05:24:21;;;;;;;9.07;4.32;;;;;;;5.73;69.37;99662.06;5053559;28;20051;-64
2022/02/19 05:27:05;;;;;;;12.32;4.30;;;;;;;5.71;69.07;99655.13;5053896;28;20055;-65
2022/02/19 05:29:49;;;;;;;15.38;4.95;;;;;;;5.69;69.21;99657.63;5053460;28;20048;-64
2022/02/19 05:32:33;;;;;;;15.40;5.35;;;;;;;5.69;69.23;99661.91;5038468;28;20044;-64
2022/02/19 05:35:17;;;;;;;;;;;;;;;5.67;68.65;99672.19;5039074;28;20079;-65
2022/02/19 05:38:01;;;;;;;13.05;5.00;;;;;;;5.67;68.97;99664.47;5053741;28;19966;-64
2022/02/19 05:40:45;;;;;;;15.80;4.78;;;;;;;5.71;69.31;99668.00;5053468;28;20498;-64
2022/02/19 05:43:29;;;;;;;18.45;4.63;;;;;;;5.69;69.58;99667.06;5038269;28;20114;-64
2022/02/19 05:46:13;;;;;;;19.17;6.10;;;;;;;5.68;69.06;99668.78;5038527;28;20611;-64
2022/02/19 05:48:57;;;;;;;20.35;5.18;;;;;;;5.66;69.19;99662.72;5053627;28;20134;-64
2022/02/19 05:51:42;;;;;;;19.85;4.35;;;;;;;5.64;69.05;99669.50;5038155;28;20130;-64
2022/02/19 05:54:26;;;;;;;;;;;;;;;5.60;68.88;99676.25;5038696;28;20084;-65
2022/02/19 05:57:12;;;;;;;18.60;4.70;;;;;;;5.63;68.94;99665.19;5038288;28;19950;-64
2022/02/19 05:59:56;;;;;;;15.07;4.25;;;;;;;5.61;69.61;99659.97;5053469;28;20500;-64
2022/02/19 06:02:40;;;;;;;9.70;4.22;;;;;;;5.62;68.74;99668.59;5052926;28;20507;-64
2022/02/19 06:05:24;;;;;;;13.15;4.88;;;;;;;5.62;69.26;99681.44;5057594;28;20051;-64
2022/02/19 06:08:08;;;;;;;23.90;5.72;;;;;;;5.59;69.47;99695.09;5057382;28;20088;-64
2022/02/19 06:10:52;;;;;;;16.83;4.70;;;;;;;5.57;68.78;99696.72;5057874;28;20044;-64
2022/02/19 06:13:39;;;;;;;;;;;;;;;5.57;69.18;99690.69;5057865;28;20135;-64
2022/02/19 06:16:23;;;;;;;14.07;4.55;;;;;;;5.56;69.25;99688.94;5042187;28;19981;-64
2022/02/19 06:19:07;;;;;;;11.07;4.18;;;;;;;5.56;69.00;99694.09;5041936;28;20095;-64
2022/02/19 06:21:51;;;;;;;14.82;3.90;;;;;;;5.54;69.60;99701.78;5042175;28;20519;-64
2022/02/19 06:24:35;;;;;;;15.77;5.30;;;;;;;5.55;69.13;99705.19;5056978;28;20079;-64
2022/02/19 06:27:20;;;;;;;11.25;4.22;;;;;;;5.55;68.89;99711.22;5056574;28;20539;-64
2022/02/19 06:30:04;;;;;;;14.32;3.92;;;;;;;5.55;69.22;99710.34;5042001;28;20078;-64
2022/02/19 06:32:48;;;;;;;12.38;4.60;;;;;;;5.56;68.96;99707.84;5056699;28;20048;-64
2022/02/19 06:35:32;;;;;;;16.00;4.68;;;;;;;5.56;69.51;99718.13;5056776;28;20056;-64
2022/02/19 06:38:16;;;;;;;12.02;4.53;;;;;;;5.59;69.19;99714.75;5041870;28;20401;-64
2022/02/19 06:41:00;;;;;;;12.30;4.75;;;;;;;5.59;69.19;99714.75;5041699;28;20055;-64
2022/02/19 06:43:44;;;;;;;15.63;4.43;;;;;;;5.60;69.47;99719.09;5056844;28;20155;-64
2022/02/19 06:46:28;;;;;;;17.90;5.38;;;;;;;5.60;69.33;99735.41;5057045;28;20603;-64
2022/02/19 06:49:15;;;;;;;11.98;3.83;;;;;;;5.62;68.92;99732.84;5056760;28;20047;-65
2022/02/19 06:51:59;;;;;;;25.90;4.60;;;;;;;5.62;68.83;99738.84;5041235;28;20187;-64
2022/02/19 06:54:45;;;;;;;11.40;3.63;;;;;;;5.62;69.40;99738.84;5056588;28;20523;-65
2022/02/19 06:57:29;;;;;;;13.30;4.63;;;;;;;5.62;69.31;99749.16;5056613;28;20052;-64
2022/02/19 07:00:14;;;;;;;12.82;3.95;;;;;;;5.64;69.83;99757.78;5041292;28;20095;-64
2022/02/19 07:02:58;;;;;;;17.63;5.07;;;;;;;5.63;69.13;99758.59;5035200;28;20084;-64
2022/02/19 07:05:42;;;;;;;18.48;5.15;;;;;;;5.58;69.35;99754.16;5036548;28;20076;-64
2022/02/19 07:08:26;;;;;;;21.45;5.15;;;;;;;5.57;69.25;99755.88;5036268;28;20516;-64
2022/02/19 07:11:10;;;;;;;13.20;4.72;;;;;;;5.56;69.45;99761.81;5036281;28;20187;-64
2022/02/19 07:13:54;;;;;;;20.08;5.10;;;;;;;5.57;69.23;99766.16;5036158;28;20095;-64
2022/02/19 07:16:40;;;;;;;11.27;3.80;;;;;;;5.56;69.28;99777.25;5034990;28;20045;-64
2022/02/19 07:19:24;;;;;;;13.55;5.35;;;;;;;5.54;69.43;99788.28;5035343;28;20103;-64
2022/02/19 07:22:08;;;;;;;13.25;4.68;;;;;;;5.54;69.54;99784.03;5036211;28;20052;-64
2022/02/19 07:24:52;;;;;;;23.48;4.53;;;;;;;5.55;69.30;99785.78;5036186;28;20120;-65
2022/02/19 07:27:44;;;;;;;16.45;4.97;;;;;;;5.53;69.09;99794.28;5036140;28;20048;-64
2022/02/19 07:30:28;;;;;;;12.88;4.60;;;;;;;5.56;69.16;99802.06;5035277;28;20053;-64
2022/02/19 07:33:12;;;;;;;;;;;;;;;5.51;68.90;99812.22;5036041;28;20044;-65
2022/02/19 07:35:59;;;;;;;14.00;4.35;;;;;;;5.53;69.46;99822.56;5035859;28;20012;-65
2022/02/19 07:38:43;;;;;;;17.38;5.13;;;;;;;5.52;69.37;99820.81;5036375;28;20117;-65
2022/02/19 07:41:27;;;;;;;12.13;4.05;;;;;;;5.52;69.25;99826.81;5035748;28;20099;-64
2022/02/19 07:44:11;;;;;;;15.40;4.13;;;;;;;5.48;69.66;99831.00;5035459;28;20142;-64
2022/02/19 07:46:55;;;;;;;10.60;4.50;;;;;;;5.46;69.97;99832.63;5034699;28;20103;-64
2022/02/19 07:58:50;;;;;;;19.13;4.15;;;;;;;5.47;69.39;99849.81;5035203;28;20052;-64
2022/02/19 08:01:34;;;;;;;16.27;4.82;;;;;;;5.46;68.94;99852.31;5037630;28;20083;-64
2022/02/19 08:04:19;;;;;;;13.85;4.95;;;;;;;5.46;69.34;99854.88;5040506;28;20450;-64
2022/02/19 08:07:03;;;;;;;14.55;3.95;;;;;;;5.44;69.31;99853.97;5040023;28;20071;-64
2022/02/19 08:09:50;;;;;;;14.63;4.80;;;;;;;5.44;69.46;99867.69;5054964;28;20491;-64
2022/02/19 08:12:34;;;;;;;30.08;5.18;;;;;;;5.46;69.57;99870.28;5040043;28;20052;-64
2022/02/19 08:15:18;;;;;;;12.52;4.38;;;;;;;5.45;69.90;99860.88;5055194;28;20048;-64
2022/02/19 08:18:06;;;;;;;15.93;4.32;;;;;;;5.44;69.78;99879.69;5055045;28;20107;-64
2022/02/19 08:20:52;;;;;;;14.00;4.20;;;;;;;5.46;69.87;99878.91;5054567;28;20098;-64
2022/02/19 08:23:38;;;;;;;10.70;4.32;;;;;;;5.46;69.62;99889.19;5039915;28;20546;-64
2022/02/19 08:26:24;;;;;;;15.00;3.92;;;;;;;5.46;69.83;99880.56;5054644;28;20103;-64
2022/02/19 08:29:09;;;;;;;15.27;4.45;;;;;;;5.45;69.86;99871.16;5054417;28;20499;-64
2022/02/19 08:31:53;;;;;;;12.93;3.65;;;;;;;5.45;69.64;99881.44;5039533;28;20121;-64
2022/02/19 08:34:36;;;;;;;12.70;4.30;;;;;;;5.45;69.72;99873.72;5054708;28;20051;-64
2022/02/19 08:37:20;;;;;;;15.38;3.53;;;;;;;5.47;70.25;99882.34;5054305;28;20079;-64
2022/02/19 08:40:09;;;;;;;12.10;3.85;;;;;;;5.46;69.36;99896.00;5054442;28;20106;-64
2022/02/19 08:42:55;;;;;;;15.45;4.70;;;;;;;5.47;69.32;99890.03;5054550;28;20079;-64
2022/02/19 08:45:39;;;;;;;14.88;4.28;;;;;;;5.49;69.83;99894.44;5039274;28;20552;-64
2022/02/19 08:48:23;;;;;;;13.27;3.60;;;;;;;5.48;69.92;99902.97;5054104;28;20558;-65
2022/02/19 08:51:07;;;;;;;12.13;4.43;;;;;;;5.49;70.11;99906.41;5054162;28;20059;-64
2022/02/19 08:53:51;;;;;;;;;;;;;;;5.48;69.70;99908.09;5039458;28;20198;-65
2022/02/19 08:56:37;;;;;;;11.00;3.95;;;;;;;5.48;69.97;99910.69;5054211;28;19920;-64
2022/02/19 08:59:21;;;;;;;15.50;4.55;;;;;;;5.50;69.84;99908.16;5039261;28;20060;-64
2022/02/19 09:02:05;;;;;;;16.17;3.58;;;;;;;5.54;69.90;99916.81;5038967;28;20110;-64
2022/02/19 09:04:49;;;;;;;14.93;4.57;;;;;;;5.55;70.09;99908.28;5054269;28;20043;-65
2022/02/19 09:07:36;;;;;;;11.35;3.63;;;;;;;5.59;69.73;99917.88;5039073;28;20144;-64
2022/02/19 09:10:21;;;;;;;12.60;4.35;;;;;;;5.62;69.83;99920.56;5039030;28;20091;-64
2022/02/19 09:13:05;;;;;;;18.88;3.85;;;;;;;5.67;69.92;99907.84;5038701;28;20052;-64
2022/02/19 09:15:49;;;;;;;11.93;4.63;;;;;;;5.71;69.64;99909.72;5038958;28;20075;-64
2022/02/19 09:18:33;;;;;;;;;;;;;;;5.71;69.31;99910.56;5039299;28;20187;-64
2022/02/19 09:21:17;;;;;;;13.88;3.60;;;;;;;5.75;69.87;99919.28;5053708;28;19958;-64
2022/02/19 09:24:01;;;;;;;12.23;4.15;;;;;;;5.76;69.94;99914.19;5038871;28;20048;-64
2022/02/19 09:26:45;;;;;;;12.90;4.40;;;;;;;5.79;69.54;99910.81;5053912;28;20072;-64
2022/02/19 09:29:29;;;;;;;17.30;4.00;;;;;;;5.83;69.68;99906.69;5053653;28;20106;-64
2022/02/19 09:32:12;;;;;;;14.85;4.43;;;;;;;5.87;69.59;99916.22;5053317;28;20122;-64
2022/02/19 09:34:57;;;;;;;7.00;3.40;;;;;;;5.88;69.90;99917.97;5053472;28;20098;-64
2022/02/19 09:37:41;;;;;;;22.35;5.00;;;;;;;5.90;70.12;99922.38;5038609;28;20518;-63
2022/02/19 09:40:31;;;;;;;14.27;3.75;;;;;;;5.92;69.98;99906.97;5053361;28;20519;-65
2022/02/19 09:43:19;;;;;;;11.00;3.90;;;;;;;5.93;69.47;99908.72;5053192;28;20659;-64
2022/02/19 09:46:06;;;;;;;14.55;3.72;;;;;;;5.97;69.56;99908.00;5053334;28;20063;-64
2022/02/19 09:48:53;;;;;;;11.43;3.72;;;;;;;6.02;69.63;99906.47;5038040;28;20052;-65
2022/02/19 09:51:37;;;;;;;10.80;3.63;;;;;;;6.05;69.65;99911.72;5038424;28;20043;-64
2022/02/19 09:54:21;;;;;;;13.40;4.55;;;;;;;6.11;69.52;99907.59;5053513;28;20566;-64
2022/02/19 09:57:08;;;;;;;;;;;;;;;6.13;70.03;99896.50;5039171;28;20388;-64
2022/02/19 09:59:51;;;;;;;10.43;3.95;;;;;;;6.15;69.55;99914.59;5053458;28;19943;-64
2022/02/19 10:02:38;;;;;;;13.55;4.32;;;;;;;6.16;69.84;99913.75;5053010;28;20060;-64
2022/02/19 10:05:24;;;;;;;10.63;3.35;;;;;;;6.11;69.69;99905.03;5053511;28;20507;-65
2022/02/19 10:08:09;;;;;;;16.00;4.40;;;;;;;6.12;69.60;99902.50;5053471;28;20060;-64
2022/02/19 10:10:54;;;;;;;13.77;4.22;;;;;;;6.12;69.32;99901.63;5053408;28;20510;-65
2022/02/19 10:13:42;;;;;;;11.20;3.95;;;;;;;6.11;69.39;99887.00;5053434;28;20052;-64
2022/02/19 10:16:29;;;;;;;8.63;3.70;;;;;;;6.11;69.52;99895.59;5038443;28;20099;-64
2022/02/19 10:19:13;;;;;;;6.60;3.33;;;;;;;6.14;69.81;99899.97;5053359;28;20040;-64
2022/02/19 10:22:10;;;;;;;13.35;4.13;;;;;;;6.13;69.75;99911.09;5052967;28;20561;-64
2022/02/19 10:25:06;;;;;;;10.10;4.03;;;;;;;6.15;69.25;99919.75;5052944;28;20048;-64
2022/02/19 10:28:04;;;;;;;9.05;4.40;;;;;;;6.16;69.38;99909.50;5052961;28;20518;-64
2022/02/19 10:30:48;;;;;;;11.85;3.85;;;;;;;6.20;69.80;99905.31;5052706;28;20558;-64
2022/02/19 10:33:32;;;;;;;10.95;3.63;;;;;;;6.22;70.08;99908.81;5037842;28;20052;-64
2022/02/19 10:36:21;;;;;;;13.20;4.05;;;;;;;6.22;69.91;99901.97;5052879;28;20040;-64
2022/02/19 10:39:08;;;;;;;11.23;3.65;;;;;;;6.27;69.73;99906.38;5037693;28;20098;-65
2022/02/19 10:41:54;;;;;;;9.50;4.07;;;;;;;6.30;69.93;99904.78;5053134;28;20451;-64
2022/02/19 10:44:39;;;;;;;12.45;3.75;;;;;;;6.32;69.52;99905.69;5037929;28;20106;-64
2022/02/19 10:47:25;;;;;;;14.10;4.60;;;;;;;6.35;69.57;99903.22;5053097;28;20044;-64
2022/02/19 10:50:18;;;;;;;10.25;3.20;;;;;;;6.38;69.85;99902.44;5053306;28;20063;-65
2022/02/19 10:53:04;;;;;;;10.35;3.78;;;;;;;6.40;69.69;99903.34;5056318;28;20578;-64
2022/02/19 10:55:48;;;;;;;10.93;4.07;;;;;;;6.40;69.80;99911.94;5056340;28;20122;-64
2022/02/19 10:58:33;;;;;;;10.70;4.00;;;;;;;6.43;69.30;99920.59;5056543;28;20044;-64
2022/02/19 11:01:20;;;;;;;9.98;3.13;;;;;;;6.40;69.36;99929.97;5056261;28;20393;-64
2022/02/19 11:04:12;;;;;;;9.70;3.95;;;;;;;6.39;69.15;99930.81;5041240;28;20447;-65
2022/02/19 11:06:56;;;;;;;10.50;4.40;;;;;;;6.39;69.59;99938.53;5041460;28;20103;-65
2022/02/19 11:09:41;;;;;;;17.48;4.30;;;;;;;6.40;69.63;99924.81;5041277;28;20094;-64
2022/02/19 11:12:25;;;;;;;;;;;;;;;6.42;69.44;99924.88;5041671;28;20515;-65
2022/02/19 11:15:12;;;;;;;8.38;3.10;;;;;;;6.43;69.81;99924.03;5056315;28;19959;-64
2022/02/19 11:17:58;;;;;;;7.35;3.95;;;;;;;6.45;69.53;99918.97;5040890;28;20071;-65
2022/02/19 11:20:48;;;;;;;7.53;3.42;;;;;;;6.49;69.86;99910.47;5055539;28;20408;-64
2022/02/19 11:23:34;;;;;;;10.38;5.00;;;;;;;6.50;70.00;99905.38;5041147;28;20507;-64
2022/02/19 11:26:23;;;;;;;10.63;3.63;;;;;;;6.53;69.36;99894.28;5040988;28;20060;-64
2022/02/19 11:29:13;;;;;;;7.40;3.50;;;;;;;6.54;69.79;99903.78;5041166;28;20111;-65
2022/02/19 11:31:58;;;;;;;6.35;2.97;;;;;;;6.55;69.75;99892.66;5040668;28;20094;-64
2022/02/19 11:34:52;;;;;;;9.23;4.18;;;;;;;6.57;69.67;99898.72;5040701;28;20048;-65
2022/02/19 11:37:45;;;;;;;7.15;3.33;;;;;;;6.60;69.81;99898.81;5040694;28;20060;-65
2022/02/19 11:40:43;;;;;;;10.40;3.35;;;;;;;6.62;69.29;99893.69;5040705;28;20103;-65
2022/02/19 11:43:33;;;;;;;10.68;3.10;;;;;;;6.63;69.81;99896.31;5040710;28;20124;-64
2022/02/19 11:46:19;;;;;;;10.13;3.08;;;;;;;6.66;69.45;99891.25;5040636;28;20409;-65
2022/02/19 11:49:20;;;;;;;6.93;3.13;;;;;;;6.66;69.50;99893.81;5040535;28;20048;-64
2022/02/19 11:52:04;;;;;;;10.88;3.47;;;;;;;6.67;69.31;99898.16;5055283;28;20083;-65
2022/02/19 11:54:48;;;;;;;6.93;3.33;;;;;;;6.65;69.14;99894.66;5055115;28;20079;-65
2022/02/19 11:57:32;;;;;;;5.90;3.55;;;;;;;6.62;69.48;99889.41;5040396;28;20403;-64
2022/02/19 12:00:55;;;;;;;13.93;2.90;;;;;;;6.64;69.52;99882.59;5055305;28;20044;-64
2022/02/19 12:03:42;;;;;;;11.57;4.05;;;;;;;6.64;69.40;99880.03;5055502;28;20091;-65
2022/02/19 12:06:27;;;;;;;5.85;2.95;;;;;;;6.67;69.36;99868.97;5040288;28;20083;-65
2022/02/19 12:09:13;;;;;;;10.95;3.75;;;;;;;6.68;69.29;99876.72;5055316;28;20059;-64
2022/02/19 12:12:04;;;;;;;11.45;3.13;;;;;;;6.68;69.38;99866.41;5039807;28;20121;-64
2022/02/19 12:15:01;;;;;;;8.43;3.22;;;;;;;6.69;69.20;99859.59;5054967;28;20056;-64
2022/02/19 12:17:45;;;;;;;11.05;3.05;;;;;;;6.70;69.58;99867.34;5055049;28;20099;-65
2022/02/19 12:20:34;;;;;;;5.75;3.88;;;;;;;6.71;69.48;99868.19;5039993;28;20052;-65
2022/02/19 12:23:18;;;;;;;5.53;2.95;;;;;;;6.73;69.15;99866.53;5054805;28;20063;-65
2022/02/19 12:26:05;;;;;;;8.32;3.60;;;;;;;6.73;69.35;99851.09;5054963;28;20059;-64
2022/02/19 12:29:21;;;;;;;13.30;3.58;;;;;;;6.74;69.53;99852.84;5039805;28;20052;-65
2022/02/19 12:32:08;;;;;;;6.63;3.47;;;;;;;6.76;68.97;99850.31;5039595;28;20056;-65
2022/02/19 12:34:56;;;;;;;10.82;3.97;;;;;;;6.77;69.43;99849.50;5039728;28;20043;-65
2022/02/19 12:37:41;;;;;;;9.48;3.30;;;;;;;6.79;68.92;99842.66;5039894;28;20083;-65
2022/02/19 12:40:25;;;;;;;14.57;3.67;;;;;;;6.79;69.14;99843.56;5054138;28;20040;-65
2022/02/19 12:43:15;;;;;;;9.93;3.58;;;;;;;6.79;68.87;99835.81;5054244;28;20514;-64
2022/02/19 12:45:59;;;;;;;15.70;3.42;;;;;;;6.79;69.28;99824.63;5039398;28;20048;-64
2022/02/19 12:48:43;;;;;;;;;;;;;;;6.79;69.12;99812.63;5040072;28;20082;-65
2022/02/19 12:51:28;;;;;;;8.32;3.47;;;;;;;6.79;69.41;99817.78;5054095;28;19951;-65
2022/02/19 12:54:12;;;;;;;8.48;3.60;;;;;;;6.79;68.94;99816.91;5054346;28;20071;-65
2022/02/19 12:56:56;;;;;;;8.13;3.53;;;;;;;6.78;68.89;99821.19;5054025;28;20056;-64
2022/02/19 12:59:43;;;;;;;15.32;3.83;;;;;;;6.77;69.33;99806.56;5039407;28;20047;-65
2022/02/19 13:02:29;;;;;;;7.80;3.30;;;;;;;6.78;69.26;99799.69;5038772;28;20064;-65
2022/02/19 13:05:14;;;;;;;10.18;3.10;;;;;;;6.78;69.29;99800.59;5053581;28;20443;-65
2022/02/19 13:08:09;;;;;;;16.60;3.70;;;;;;;6.79;69.04;99812.63;5054094;28;20612;-65
2022/02/19 13:10:58;;;;;;;14.98;3.88;;;;;;;6.80;68.92;99806.66;5038856;28;20040;-65
2022/02/19 13:13:42;;;;;;;10.02;2.55;;;;;;;6.80;69.02;99809.22;5053272;28;20120;-65